Terminal Aerodrome Forecast
Issued by NWS Amarillo, TX

Home | Current Version | Previous Version | Text Only | Print | Product List | Glossary On
Versions: 1 2 3 4 5 6 7 8 9 10 11 12 13 14 15 16 17 18 19 20 21 22
000
FTUS44 KAMA 072000 AAB
TAFAMA
TAF AMD
KAMA 072055Z 0721/0818 03013KT 4SM -RA BR SCT015 BKN030
      TEMPO 0721/0723 02013KT 2SM -RA BR OVC015
     FM072300 04008KT 3SM BR OVC015
     FM080300 08008KT 1SM BR OVC004
     FM081500 12008KT P6SM OVC015=

USA.gov is the U.S. government's official web portal to all federal, state and local government web resources and services.